createdAt,value
2023-04-16T00:00:19.062Z,99280.72
2023-04-16T00:03:12.273Z,99276.03
2023-04-16T00:05:41.434Z,99275.97
2023-04-16T00:08:10.083Z,99274.69
2023-04-16T00:15:12.648Z,99268.59
2023-04-16T00:17:41.463Z,99270.50
2023-04-16T00:20:09.426Z,99268.47
2023-04-16T00:22:47.073Z,99271.91
2023-04-16T00:25:17.715Z,99271.16
2023-04-16T00:27:50.193Z,99276.63
2023-04-16T00:30:29.428Z,99270.25
2023-04-16T00:32:58.067Z,99266.78
2023-04-16T00:35:25.984Z,99263.75
2023-04-16T00:37:55.490Z,99261.25
2023-04-16T00:40:23.014Z,99273.41
2023-04-16T00:42:51.669Z,99273.41
2023-04-16T00:45:20.049Z,99274.94
2023-04-16T00:47:51.341Z,99269.72
2023-04-16T00:50:18.888Z,99271.00
2023-04-16T00:52:51.859Z,99270.56
2023-04-16T00:55:21.469Z,99278.84
2023-04-16T00:57:48.776Z,99276.91
2023-04-16T01:00:16.476Z,99276.69
2023-04-16T01:02:44.934Z,99281.94
2023-04-16T01:05:13.611Z,99285.22
2023-04-16T01:07:41.071Z,99289.00
2023-04-16T01:10:10.265Z,99296.50
2023-04-16T01:12:40.287Z,99287.31
2023-04-16T01:15:13.802Z,99294.06
2023-04-16T01:17:44.584Z,99288.34
2023-04-16T01:20:13.431Z,99289.56
2023-04-16T01:22:42.862Z,99286.97
2023-04-16T01:25:15.742Z,99286.47
2023-04-16T01:27:44.566Z,99289.63
2023-04-16T01:30:17.621Z,99302.25
2023-04-16T01:32:58.981Z,99302.63
2023-04-16T01:35:29.813Z,99302.03
2023-04-16T01:37:58.207Z,99311.34
2023-04-16T01:40:30.104Z,99311.50
2023-04-16T01:42:57.296Z,99315.06
2023-04-16T01:45:32.111Z,99311.97
2023-04-16T01:47:59.527Z,99321.63
2023-04-16T01:50:37.594Z,99319.78
2023-04-16T01:53:06.204Z,99327.69
2023-04-16T01:55:35.681Z,99327.84
2023-04-16T01:58:05.643Z,99326.00
2023-04-16T02:00:37.815Z,99331.53
2023-04-16T02:03:09.137Z,99326.28
2023-04-16T02:05:38.082Z,99334.41
2023-04-16T02:08:08.088Z,99328.06
2023-04-16T02:10:39.595Z,99321.94
2023-04-16T02:13:09.748Z,99319.63
2023-04-16T02:15:39.126Z,99318.53
2023-04-16T02:18:06.751Z,99317.88
2023-04-16T02:20:40.416Z,99324.22
2023-04-16T02:23:09.420Z,99334.81
2023-04-16T02:25:44.319Z,99326.53
2023-04-16T02:28:14.468Z,99323.69
2023-04-16T02:30:43.603Z,99335.59
2023-04-16T02:33:12.985Z,99342.25
2023-04-16T02:35:50.896Z,99342.16
2023-04-16T02:38:51.908Z,99335.41
2023-04-16T02:41:19.684Z,99343.13
2023-04-16T02:43:52.471Z,99341.03
2023-04-16T02:46:25.119Z,99338.03
2023-04-16T02:48:54.736Z,99338.22
2023-04-16T02:51:25.071Z,99332.47
2023-04-16T02:53:57.973Z,99343.41
2023-04-16T02:56:25.833Z,99346.59
2023-04-16T02:58:55.763Z,99343.09
2023-04-16T03:01:24.324Z,99346.31
2023-04-16T03:03:56.709Z,99340.31
2023-04-16T03:06:29.682Z,99347.25
2023-04-16T03:08:59.204Z,99344.72
2023-04-16T03:11:27.889Z,99349.41
2023-04-16T03:13:55.459Z,99349.91
2023-04-16T03:16:25.266Z,99348.94
2023-04-16T03:18:52.847Z,99356.41
2023-04-16T03:21:21.032Z,99354.59
2023-04-16T03:23:56.198Z,99360.81
2023-04-16T03:26:31.118Z,99350.66
2023-04-16T03:29:04.179Z,99363.66
2023-04-16T03:31:35.517Z,99363.94
2023-04-16T03:34:07.705Z,99367.06
2023-04-16T03:36:36.753Z,99364.50
2023-04-16T03:39:06.152Z,99372.59
2023-04-16T03:41:37.920Z,99375.50
2023-04-16T03:44:07.925Z,99375.84
2023-04-16T03:46:38.421Z,99371.44
2023-04-16T03:49:05.725Z,99381.69
2023-04-16T03:51:35.134Z,99387.75
2023-04-16T03:54:02.170Z,99387.16
2023-04-16T03:56:33.797Z,99394.28
2023-04-16T03:59:01.901Z,99394.63
2023-04-16T04:01:34.144Z,99404.44
2023-04-16T04:04:02.653Z,99397.81
2023-04-16T04:06:35.108Z,99398.38
2023-04-16T04:09:02.995Z,99405.91
2023-04-16T04:11:34.384Z,99409.16
2023-04-16T04:14:02.997Z,99414.22
2023-04-16T04:16:30.694Z,99426.03
2023-04-16T04:19:00.610Z,99424.84
2023-04-16T04:21:32.066Z,99428.91
2023-04-16T04:23:59.148Z,99428.50
2023-04-16T04:26:30.980Z,99437.25
2023-04-16T04:29:00.599Z,99436.31
2023-04-16T04:31:30.485Z,99434.84
2023-04-16T04:34:00.888Z,99437.66
2023-04-16T04:36:32.413Z,99440.19
2023-04-16T04:39:02.135Z,99444.91
2023-04-16T04:41:29.687Z,99446.97
2023-04-16T04:43:57.882Z,99449.50
2023-04-16T04:46:26.800Z,99446.75
2023-04-16T04:48:54.935Z,99458.06
2023-04-16T04:51:23.157Z,99459.34
2023-04-16T04:53:52.427Z,99466.63
2023-04-16T04:56:23.794Z,99470.09
2023-04-16T04:58:51.247Z,99472.16
2023-04-16T05:01:24.687Z,99475.16
2023-04-16T05:03:55.217Z,99472.16
2023-04-16T05:06:33.833Z,99476.69
2023-04-16T05:09:01.893Z,99481.69
2023-04-16T05:11:37.848Z,99492.63
2023-04-16T05:14:07.760Z,99490.00
2023-04-16T05:16:39.532Z,99498.97
2023-04-16T05:19:09.533Z,99501.31
2023-04-16T05:21:39.234Z,99507.88
2023-04-16T05:24:07.006Z,99511.22
2023-04-16T05:26:34.510Z,99513.03
2023-04-16T05:29:02.244Z,99518.66
2023-04-16T05:31:29.739Z,99516.25
2023-04-16T05:33:57.823Z,99519.72
2023-04-16T05:36:33.322Z,99521.31
2023-04-16T05:39:02.520Z,99520.88
2023-04-16T05:41:30.033Z,99523.22
2023-04-16T05:44:00.556Z,99521.63
2023-04-16T05:46:32.984Z,99517.50
2023-04-16T05:49:01.518Z,99516.56
2023-04-16T05:51:28.960Z,99522.44
2023-04-16T05:53:56.030Z,99520.50
2023-04-16T05:56:26.188Z,99522.38
2023-04-16T05:58:54.153Z,99528.69
2023-04-16T06:01:25.351Z,99530.53
2023-04-16T06:03:53.211Z,99531.56
2023-04-16T06:06:21.530Z,99536.13
2023-04-16T06:08:50.490Z,99535.38
2023-04-16T06:11:20.213Z,99542.66
2023-04-16T06:13:47.387Z,99552.41
2023-04-16T06:16:17.267Z,99546.88
2023-04-16T06:18:49.661Z,99549.13
2023-04-16T06:21:19.718Z,99551.63
2023-04-16T06:23:50.937Z,99549.63
2023-04-16T06:26:18.904Z,99553.09
2023-04-16T06:28:48.646Z,99551.53
2023-04-16T06:31:17.298Z,99555.47
2023-04-16T06:33:44.794Z,99558.41
2023-04-16T06:36:17.060Z,99556.50
2023-04-16T06:38:46.659Z,99557.34
2023-04-16T06:41:15.679Z,99559.09
2023-04-16T06:43:44.308Z,99564.06
2023-04-16T06:46:14.838Z,99570.75
2023-04-16T06:48:42.487Z,99572.31
2023-04-16T06:51:09.808Z,99567.31
2023-04-16T06:53:37.573Z,99561.97
2023-04-16T06:56:05.042Z,99578.50
2023-04-16T06:58:33.045Z,99570.81
2023-04-16T07:01:00.767Z,99579.53
2023-04-16T07:03:33.266Z,99576.25
2023-04-16T07:06:03.905Z,99584.59
2023-04-16T07:08:33.653Z,99586.06
2023-04-16T07:11:07.107Z,99597.88
2023-04-16T07:13:35.227Z,99600.56
2023-04-16T07:16:08.527Z,99606.94
2023-04-16T07:18:38.101Z,99607.38
2023-04-16T07:21:09.662Z,99614.75
2023-04-16T07:23:37.783Z,99609.78
2023-04-16T07:26:14.614Z,99622.72
2023-04-16T07:28:43.634Z,99631.69
2023-04-16T07:31:11.503Z,99640.31
2023-04-16T07:33:41.018Z,99642.53
2023-04-16T07:36:08.485Z,99636.94
2023-04-16T07:38:37.143Z,99641.50
2023-04-16T07:41:04.873Z,99645.31
2023-04-16T07:43:37.699Z,99649.91
2023-04-16T07:46:07.681Z,99657.56
2023-04-16T07:48:36.814Z,99654.00
2023-04-16T07:51:04.511Z,99647.63
2023-04-16T07:53:31.836Z,99654.13
2023-04-16T07:56:01.452Z,99652.41
2023-04-16T07:58:28.610Z,99658.34
2023-04-16T08:00:58.895Z,99644.00
2023-04-16T08:03:28.403Z,99638.75
2023-04-16T08:06:08.533Z,99640.97
2023-04-16T08:08:36.606Z,99648.94
2023-04-16T08:11:09.562Z,99645.28
2023-04-16T08:13:38.889Z,99646.09
2023-04-16T08:16:11.451Z,99651.03
2023-04-16T08:18:44.344Z,99651.16
2023-04-16T08:21:11.794Z,99650.31
2023-04-16T08:23:39.420Z,99648.25
2023-04-16T08:26:06.872Z,99645.69
2023-04-16T08:28:35.531Z,99643.28
2023-04-16T08:31:07.866Z,99659.53
2023-04-16T08:33:35.868Z,99661.91
2023-04-16T08:36:04.865Z,99664.25
2023-04-16T08:38:33.044Z,99672.53
2023-04-16T08:41:07.279Z,99672.44
2023-04-16T08:43:37.802Z,99678.00
2023-04-16T08:46:09.805Z,99679.03
2023-04-16T08:48:46.325Z,99677.25
2023-04-16T08:51:17.418Z,99680.25
2023-04-16T08:53:59.888Z,99680.00
2023-04-16T08:56:27.555Z,99687.75
2023-04-16T08:58:56.057Z,99692.03
2023-04-16T09:01:24.970Z,99695.63
2023-04-16T09:03:54.331Z,99694.06
2023-04-16T09:06:24.891Z,99707.75
2023-04-16T09:08:55.367Z,99703.28
2023-04-16T09:11:27.998Z,99702.38
2023-04-16T09:13:55.813Z,99700.47
2023-04-16T09:16:23.806Z,99703.81
2023-04-16T09:18:54.619Z,99696.69
2023-04-16T09:21:23.882Z,99696.13
2023-04-16T09:23:53.391Z,99697.38
2023-04-16T09:26:26.296Z,99698.00
2023-04-16T09:28:56.130Z,99701.28
2023-04-16T09:31:26.787Z,99699.09
2023-04-16T09:34:13.849Z,99700.00
2023-04-16T09:36:48.394Z,99706.72
2023-04-16T09:39:19.032Z,99705.84
2023-04-16T09:41:48.133Z,99718.53
2023-04-16T09:44:16.993Z,99716.88
2023-04-16T09:46:45.574Z,99709.72
2023-04-16T09:49:18.760Z,99719.44
2023-04-16T09:51:54.627Z,99719.13
2023-04-16T09:54:22.342Z,99721.78
2023-04-16T09:56:50.940Z,99723.09
2023-04-16T09:59:22.669Z,99723.22
2023-04-16T10:01:53.459Z,99719.25
2023-04-16T10:04:52.570Z,99718.19
2023-04-16T10:07:22.491Z,99719.19
2023-04-16T10:09:50.773Z,99716.44
2023-04-16T10:12:27.384Z,99714.19
2023-04-16T10:14:59.665Z,99715.38
2023-04-16T10:17:32.865Z,99713.56
2023-04-16T10:20:02.167Z,99710.59
2023-04-16T10:22:29.590Z,99721.38
2023-04-16T10:25:00.417Z,99728.09
2023-04-16T10:27:35.040Z,99717.44
2023-04-16T10:30:08.277Z,99718.28
2023-04-16T10:32:38.238Z,99712.16
2023-04-16T10:35:08.530Z,99725.38
2023-04-16T10:37:37.583Z,99711.94
2023-04-16T10:40:23.884Z,99711.59
2023-04-16T10:42:56.666Z,99710.47
2023-04-16T10:45:42.855Z,99717.84
2023-04-16T10:48:16.242Z,99724.88
2023-04-16T10:50:45.055Z,99719.38
2023-04-16T10:53:20.322Z,99723.41
2023-04-16T10:56:06.491Z,99721.25
2023-04-16T10:58:38.374Z,99715.81
2023-04-16T11:01:15.864Z,99720.72
2023-04-16T11:03:45.233Z,99724.28
2023-04-16T11:06:18.751Z,99717.34
2023-04-16T11:08:54.670Z,99716.59
2023-04-16T11:11:23.938Z,99718.47
2023-04-16T11:13:57.193Z,99716.78
2023-04-16T11:16:27.633Z,99715.88
2023-04-16T11:18:57.256Z,99720.72
2023-04-16T11:21:25.428Z,99716.03
2023-04-16T11:23:57.173Z,99723.09
2023-04-16T11:26:26.836Z,99716.00
2023-04-16T11:28:57.205Z,99728.31
2023-04-16T11:31:28.745Z,99715.63
2023-04-16T11:33:57.131Z,99722.47
2023-04-16T11:36:27.465Z,99714.75
2023-04-16T11:39:01.386Z,99717.91
2023-04-16T11:41:29.063Z,99729.09
2023-04-16T11:44:16.878Z,99721.09
2023-04-16T11:46:58.111Z,99716.59
2023-04-16T11:49:34.156Z,99719.31
2023-04-16T11:52:03.948Z,99723.91
2023-04-16T11:54:34.982Z,99721.91
2023-04-16T11:57:12.322Z,99720.16
2023-04-16T12:00:01.616Z,99716.38
2023-04-16T12:02:52.991Z,99716.97
2023-04-16T12:05:29.404Z,99721.63
2023-04-16T12:07:59.759Z,99716.03
2023-04-16T12:10:31.292Z,99718.66
2023-04-16T12:13:16.028Z,99705.81
2023-04-16T12:15:56.876Z,99713.06
2023-04-16T12:18:27.762Z,99718.03
2023-04-16T12:20:56.178Z,99716.47
2023-04-16T12:23:30.533Z,99709.31
2023-04-16T12:26:02.813Z,99701.13
2023-04-16T12:28:39.205Z,99707.19
2023-04-16T12:31:07.049Z,99708.94
2023-04-16T12:33:35.082Z,99706.69
2023-04-16T12:36:22.777Z,99706.69
2023-04-16T12:38:51.965Z,99713.41
2023-04-16T12:41:24.048Z,99706.56
2023-04-16T12:43:55.522Z,99709.72
2023-04-16T12:46:23.121Z,99698.78
2023-04-16T12:48:54.426Z,99710.72
2023-04-16T12:51:28.046Z,99701.16
2023-04-16T12:54:02.248Z,99692.44
2023-04-16T12:56:31.448Z,99701.38
2023-04-16T12:59:00.991Z,99697.47
2023-04-16T13:01:45.998Z,99695.25
2023-04-16T13:04:15.702Z,99694.78
2023-04-16T13:06:48.314Z,99686.69
2023-04-16T13:09:16.220Z,99690.25
2023-04-16T13:11:48.240Z,99688.34
2023-04-16T13:14:15.923Z,99684.44
2023-04-16T13:16:45.539Z,99687.97
2023-04-16T13:19:22.927Z,99680.31
2023-04-16T13:21:50.789Z,99682.59
2023-04-16T13:24:20.136Z,99687.28
2023-04-16T13:26:51.649Z,99688.41
2023-04-16T13:29:25.992Z,99678.88
2023-04-16T13:31:57.757Z,99685.25
2023-04-16T13:34:27.764Z,99681.22
2023-04-16T13:37:02.261Z,99682.72
2023-04-16T13:39:29.843Z,99690.88
2023-04-16T13:42:01.525Z,99688.84
2023-04-16T13:44:31.214Z,99689.72
2023-04-16T13:47:04.933Z,99691.47
2023-04-16T13:49:37.093Z,99690.22
2023-04-16T13:52:06.832Z,99695.22
2023-04-16T13:54:34.853Z,99698.22
2023-04-16T13:57:06.467Z,99695.16
2023-04-16T13:59:36.972Z,99693.63
2023-04-16T14:02:12.834Z,99693.00
2023-04-16T14:04:40.851Z,99690.56
2023-04-16T14:07:10.276Z,99699.88
2023-04-16T14:09:41.195Z,99699.06
2023-04-16T14:12:13.118Z,99701.38
2023-04-16T14:14:43.231Z,99688.50
2023-04-16T14:17:14.174Z,99701.13
2023-04-16T14:19:44.577Z,99697.78
2023-04-16T14:22:13.348Z,99698.63
2023-04-16T14:24:41.088Z,99696.72
2023-04-16T14:27:11.914Z,99697.66
2023-04-16T14:29:45.510Z,99691.84
2023-04-16T14:32:14.993Z,99693.00
2023-04-16T14:34:44.082Z,99692.72
2023-04-16T14:37:12.406Z,99689.84
2023-04-16T14:39:41.856Z,99685.81
2023-04-16T14:42:14.329Z,99692.34
2023-04-16T14:44:45.577Z,99701.69
2023-04-16T14:47:15.935Z,99695.94
2023-04-16T14:49:48.761Z,99696.47
2023-04-16T14:52:17.566Z,99692.63
2023-04-16T14:54:47.759Z,99691.03
2023-04-16T14:57:19.200Z,99685.91
2023-04-16T14:59:50.081Z,99690.50
2023-04-16T15:02:17.508Z,99687.59
2023-04-16T15:04:46.549Z,99690.69
2023-04-16T15:07:14.712Z,99691.13
2023-04-16T15:09:44.642Z,99695.19
2023-04-16T15:12:14.443Z,99698.31
2023-04-16T15:14:43.514Z,99696.16
2023-04-16T15:17:11.487Z,99690.06
2023-04-16T15:19:41.048Z,99694.34
2023-04-16T15:22:11.131Z,99694.13
2023-04-16T15:24:39.142Z,99695.41
2023-04-16T15:27:08.017Z,99694.66
2023-04-16T15:29:39.417Z,99700.22
2023-04-16T15:32:12.368Z,99700.66
2023-04-16T15:34:52.083Z,99701.81
2023-04-16T15:37:20.197Z,99702.03
2023-04-16T15:39:48.463Z,99700.97
2023-04-16T15:42:18.411Z,99705.88
2023-04-16T15:44:50.133Z,99699.56
2023-04-16T15:47:19.775Z,99698.06
2023-04-16T15:49:49.067Z,99702.44
2023-04-16T15:52:20.391Z,99695.50
2023-04-16T15:54:50.717Z,99703.41
2023-04-16T15:57:19.585Z,99703.28
2023-04-16T16:00:05.464Z,99695.16
2023-04-16T16:02:36.376Z,99700.06
2023-04-16T16:05:05.042Z,99694.25
2023-04-16T16:07:34.339Z,99698.63
2023-04-16T16:10:18.052Z,99700.44
2023-04-16T16:12:46.765Z,99703.28
2023-04-16T16:15:14.979Z,99702.44
2023-04-16T16:17:45.850Z,99706.06
2023-04-16T16:20:16.590Z,99705.81
2023-04-16T16:22:47.249Z,99708.28
2023-04-16T16:25:20.416Z,99705.19
2023-04-16T16:27:51.801Z,99708.78
2023-04-16T16:30:22.079Z,99706.09
2023-04-16T16:32:54.031Z,99706.09
2023-04-16T16:35:23.115Z,99702.66
2023-04-16T16:37:55.421Z,99706.41
2023-04-16T16:40:24.211Z,99707.44
2023-04-16T16:42:53.069Z,99705.97
2023-04-16T16:45:21.203Z,99704.78
2023-04-16T16:47:53.820Z,99707.94
2023-04-16T16:50:22.644Z,99698.31
2023-04-16T16:52:50.942Z,99701.41
2023-04-16T16:55:19.189Z,99705.53
2023-04-16T16:57:50.386Z,99702.53
2023-04-16T17:00:27.946Z,99710.38
2023-04-16T17:03:04.304Z,99699.19
2023-04-16T17:05:34.894Z,99701.72
2023-04-16T17:08:03.331Z,99708.31
2023-04-16T17:10:33.380Z,99706.34
2023-04-16T17:13:05.178Z,99718.50
2023-04-16T17:15:33.215Z,99711.47
2023-04-16T17:18:02.451Z,99716.78
2023-04-16T17:20:30.940Z,99720.38
2023-04-16T17:23:01.418Z,99715.88
2023-04-16T17:25:31.782Z,99713.47
2023-04-16T17:28:03.395Z,99716.22
2023-04-16T17:30:37.836Z,99715.06
2023-04-16T17:33:08.822Z,99727.72
2023-04-16T17:35:40.561Z,99727.34
2023-04-16T17:38:11.589Z,99728.13
2023-04-16T17:40:40.143Z,99730.47
2023-04-16T17:43:08.447Z,99732.72
2023-04-16T17:45:36.669Z,99726.19
2023-04-16T17:48:06.062Z,99729.56
2023-04-16T17:50:36.513Z,99729.34
2023-04-16T17:53:10.272Z,99729.16
2023-04-16T17:55:39.277Z,99732.72
2023-04-16T17:58:09.556Z,99735.31
2023-04-16T18:00:42.712Z,99738.88
2023-04-16T18:03:22.281Z,99736.38
2023-04-16T18:05:54.441Z,99737.94
2023-04-16T18:08:24.239Z,99741.00
2023-04-16T18:11:05.420Z,99747.53
2023-04-16T18:13:33.656Z,99743.03
2023-04-16T18:16:08.335Z,99759.41
2023-04-16T18:18:38.325Z,99746.31
2023-04-16T18:21:07.001Z,99741.06
2023-04-16T18:23:38.412Z,99749.88
2023-04-16T18:26:09.439Z,99746.63
2023-04-16T18:28:42.432Z,99744.41
2023-04-16T18:31:12.129Z,99749.69
2023-04-16T18:33:55.574Z,99757.25
2023-04-16T18:36:30.454Z,99741.94
2023-04-16T18:39:15.583Z,99753.53
2023-04-16T18:41:48.074Z,99759.09
2023-04-16T18:44:18.338Z,99764.63
2023-04-16T18:46:59.244Z,99760.63
2023-04-16T18:49:29.175Z,99753.84
2023-04-16T18:52:01.342Z,99756.16
2023-04-16T18:54:32.731Z,99761.44
2023-04-16T18:57:06.656Z,99759.19
2023-04-16T18:59:38.341Z,99759.66
2023-04-16T19:02:08.653Z,99765.19
2023-04-16T19:04:39.393Z,99772.75
2023-04-16T19:07:12.280Z,99779.53
2023-04-16T19:09:43.374Z,99775.53
2023-04-16T19:12:18.612Z,99776.31
2023-04-16T19:14:51.599Z,99777.31
2023-04-16T19:17:22.305Z,99780.84
2023-04-16T19:20:07.442Z,99773.53
2023-04-16T19:22:48.350Z,99775.31
2023-04-16T19:25:20.645Z,99778.31
2023-04-16T19:27:56.511Z,99780.84
2023-04-16T19:30:28.103Z,99779.09
2023-04-16T19:33:03.523Z,99783.88
2023-04-16T19:35:31.267Z,99786.34
2023-04-16T19:37:59.800Z,99781.09
2023-04-16T19:40:36.157Z,99774.81
2023-04-16T19:43:09.214Z,99773.06
2023-04-16T19:45:48.292Z,99782.41
2023-04-16T19:48:18.455Z,99789.41
2023-04-16T19:50:47.661Z,99781.63
2023-04-16T19:53:18.046Z,99777.63
2023-04-16T19:55:50.268Z,99780.66
2023-04-16T19:58:19.880Z,99770.59
2023-04-16T20:00:50.193Z,99778.13
2023-04-16T20:03:21.762Z,99781.63
2023-04-16T20:05:52.771Z,99791.19
2023-04-16T20:08:24.060Z,99776.63
2023-04-16T20:10:53.820Z,99779.38
2023-04-16T20:13:21.996Z,99773.09
2023-04-16T20:15:54.777Z,99775.88
2023-04-16T20:18:28.135Z,99780.41
2023-04-16T20:21:01.546Z,99777.38
2023-04-16T20:23:33.090Z,99774.38
2023-04-16T20:26:01.945Z,99767.84
2023-04-16T20:28:33.861Z,99780.94
2023-04-16T20:31:03.221Z,99773.38
2023-04-16T20:33:34.637Z,99772.91
2023-04-16T20:36:03.531Z,99776.16
2023-04-16T20:38:37.381Z,99769.91
2023-04-16T20:41:11.061Z,99777.44
2023-04-16T20:43:45.064Z,99772.41
2023-04-16T20:46:20.830Z,99767.66
2023-04-16T20:48:51.939Z,99766.13
2023-04-16T20:51:19.654Z,99766.13
2023-04-16T20:53:52.468Z,99761.63
2023-04-16T20:56:26.184Z,99772.94
2023-04-16T20:59:05.623Z,99763.66
2023-04-16T21:01:40.134Z,99763.66
2023-04-16T21:04:09.762Z,99763.66
2023-04-16T21:06:38.778Z,99764.16
2023-04-16T21:09:08.970Z,99772.19
2023-04-16T21:11:38.326Z,99762.41
2023-04-16T21:14:06.150Z,99769.41
2023-04-16T21:16:41.045Z,99760.41
2023-04-16T21:19:09.368Z,99766.94
2023-04-16T21:21:38.988Z,99760.66
2023-04-16T21:24:06.895Z,99771.22
2023-04-16T21:26:40.307Z,99757.66
2023-04-16T21:29:10.122Z,99761.66
2023-04-16T21:31:40.096Z,99764.19
2023-04-16T21:34:08.619Z,99761.19
2023-04-16T21:36:35.975Z,99757.16
2023-04-16T21:39:07.044Z,99757.16
2023-04-16T21:41:38.795Z,99752.66
2023-04-16T21:44:11.667Z,99762.19
2023-04-16T21:46:40.187Z,99756.91
2023-04-16T21:49:09.272Z,99758.69
2023-04-16T21:51:43.125Z,99760.19
2023-04-16T21:54:17.994Z,99767.97
2023-04-16T21:56:51.323Z,99764.22
2023-04-16T21:59:20.256Z,99760.19
2023-04-16T22:01:49.234Z,99759.94
2023-04-16T22:04:18.450Z,99751.94
2023-04-16T22:06:47.766Z,99749.91
2023-04-16T22:09:20.308Z,99747.91
2023-04-16T22:11:49.941Z,99755.72
2023-04-16T22:14:23.346Z,99751.44
2023-04-16T22:16:51.845Z,99744.69
2023-04-16T22:19:20.130Z,99738.66
2023-04-16T22:21:49.310Z,99744.97
2023-04-16T22:24:19.453Z,99741.94
2023-04-16T22:26:54.181Z,99743.22
2023-04-16T22:29:22.558Z,99736.69
2023-04-16T22:31:49.828Z,99735.69
2023-04-16T22:34:19.937Z,99738.44
2023-04-16T22:36:49.449Z,99733.94
2023-04-16T22:39:18.694Z,99736.72
2023-04-16T22:41:49.887Z,99737.22
2023-04-16T22:44:19.601Z,99736.47
2023-04-16T22:46:51.478Z,99735.94
2023-04-16T22:49:18.776Z,99721.16
2023-04-16T22:51:49.736Z,99722.66
2023-04-16T22:54:20.634Z,99719.91
2023-04-16T22:56:55.028Z,99727.41
2023-04-16T22:59:33.548Z,99729.47
2023-04-16T23:02:00.451Z,99725.94
2023-04-16T23:04:28.038Z,99721.69
2023-04-16T23:06:58.233Z,99725.44
2023-04-16T23:09:29.990Z,99716.91
2023-04-16T23:12:00.455Z,99714.41
2023-04-16T23:14:31.604Z,99720.16
2023-04-16T23:16:59.744Z,99708.41
2023-04-16T23:19:27.382Z,99712.91
2023-04-16T23:21:55.935Z,99719.19
2023-04-16T23:24:28.812Z,99713.69
2023-04-16T23:26:58.371Z,99707.91
2023-04-16T23:29:30.222Z,99714.66
2023-04-16T23:32:00.650Z,99720.44
2023-04-16T23:34:28.742Z,99711.16
2023-04-16T23:36:59.313Z,99705.66
2023-04-16T23:39:32.176Z,99710.91
2023-04-16T23:42:00.840Z,99710.66
2023-04-16T23:44:32.093Z,99713.16
2023-04-16T23:47:01.006Z,99710.16
2023-04-16T23:49:32.639Z,99702.38
2023-04-16T23:52:07.217Z,99701.13
2023-04-16T23:54:39.338Z,99710.16
2023-04-16T23:57:08.505Z,99701.34
2023-04-16T23:59:43.396Z,99704.38
